createdAt,value
2022-08-17T00:02:25.875Z,20.90
2022-08-17T00:04:54.265Z,20.90
2022-08-17T00:07:21.293Z,20.90
2022-08-17T00:09:48.264Z,20.90
2022-08-17T00:12:43.735Z,20.90
2022-08-17T00:15:02.364Z,20.90
2022-08-17T00:17:29.266Z,20.80
2022-08-17T00:19:56.237Z,20.90
2022-08-17T00:22:33.076Z,20.80
2022-08-17T00:25:05.340Z,20.90
2022-08-17T00:27:32.294Z,20.90
2022-08-17T00:29:59.276Z,20.90
2022-08-17T00:33:23.147Z,20.90
2022-08-17T00:35:17.599Z,20.90
2022-08-17T00:37:44.532Z,21.00
2022-08-17T00:40:14.283Z,21.00
2022-08-17T00:42:42.521Z,21.10
2022-08-17T00:45:11.957Z,21.10
2022-08-17T00:47:38.854Z,21.20
2022-08-17T00:50:08.546Z,21.20
2022-08-17T00:52:42.726Z,21.10
2022-08-17T00:55:11.118Z,21.20
2022-08-17T00:57:44.999Z,21.10
2022-08-17T01:00:38.124Z,21.10
2022-08-17T01:03:13.150Z,21.00
2022-08-17T01:05:42.522Z,21.00
2022-08-17T01:08:13.441Z,21.00
2022-08-17T01:10:59.608Z,21.00
2022-08-17T01:13:39.631Z,20.90
2022-08-17T01:16:22.359Z,20.90
2022-08-17T01:18:53.147Z,20.80
2022-08-17T01:21:28.981Z,20.80
2022-08-17T01:23:56.649Z,20.80
2022-08-17T01:26:23.940Z,20.70
2022-08-17T01:28:54.373Z,20.70
2022-08-17T01:31:28.082Z,20.70
2022-08-17T01:33:55.089Z,20.60
2022-08-17T01:36:22.014Z,20.60
2022-08-17T01:38:48.994Z,20.60
2022-08-17T01:41:16.577Z,20.60
2022-08-17T01:43:55.733Z,20.60
2022-08-17T01:46:29.785Z,20.60
2022-08-17T01:48:58.006Z,20.60
2022-08-17T01:51:32.104Z,20.50
2022-08-17T01:54:05.092Z,20.50
2022-08-17T01:56:34.274Z,20.50
2022-08-17T01:59:01.560Z,20.50
2022-08-17T02:01:30.874Z,20.50
2022-08-17T02:04:00.818Z,20.50
2022-08-17T02:06:42.768Z,20.50
2022-08-17T02:09:16.835Z,20.50
2022-08-17T02:11:44.571Z,20.50
2022-08-17T02:14:13.526Z,20.50
2022-08-17T02:16:41.400Z,20.50
2022-08-17T02:19:11.898Z,20.50
2022-08-17T02:21:40.483Z,20.60
2022-08-17T02:24:10.937Z,20.60
2022-08-17T02:26:38.011Z,20.60
2022-08-17T02:29:05.062Z,20.60
2022-08-17T02:31:32.155Z,20.60
2022-08-17T02:34:03.941Z,20.60
2022-08-17T02:36:35.939Z,20.50
2022-08-17T02:39:05.723Z,20.50
2022-08-17T02:41:32.982Z,20.40
2022-08-17T02:43:59.984Z,20.50
2022-08-17T02:46:26.971Z,20.50
2022-08-17T02:48:53.991Z,20.50
2022-08-17T02:51:20.995Z,20.50
2022-08-17T02:53:47.913Z,20.50
2022-08-17T02:56:15.104Z,20.50
2022-08-17T02:58:42.100Z,20.50
2022-08-17T03:01:10.125Z,20.50
2022-08-17T03:03:37.812Z,20.50
2022-08-17T03:06:06.206Z,20.50
2022-08-17T03:08:33.690Z,20.50
2022-08-17T03:11:00.630Z,20.50
2022-08-17T03:13:27.698Z,20.50
2022-08-17T03:15:54.573Z,20.50
2022-08-17T03:18:24.889Z,20.50
2022-08-17T03:20:59.148Z,20.50
2022-08-17T03:23:27.811Z,20.50
2022-08-17T03:25:57.310Z,20.50
2022-08-17T03:28:24.898Z,20.50
2022-08-17T03:30:52.404Z,20.50
2022-08-17T03:33:21.164Z,20.50
2022-08-17T03:35:48.093Z,20.50
2022-08-17T03:38:17.137Z,20.40
2022-08-17T03:40:57.136Z,20.40
2022-08-17T03:43:31.161Z,20.40
2022-08-17T03:46:34.229Z,20.40
2022-08-17T03:49:25.029Z,20.40
2022-08-17T03:52:11.193Z,20.30
2022-08-17T03:54:57.229Z,20.30
2022-08-17T03:57:24.731Z,20.30
2022-08-17T03:59:52.507Z,20.20
2022-08-17T04:02:26.633Z,20.30
2022-08-17T04:04:54.220Z,20.20
2022-08-17T04:07:23.411Z,20.20
2022-08-17T04:09:50.490Z,20.20
2022-08-17T04:12:19.113Z,20.10
2022-08-17T04:14:52.640Z,20.10
2022-08-17T04:17:26.371Z,20.10
2022-08-17T04:19:54.944Z,20.10
2022-08-17T04:22:32.048Z,20.10
2022-08-17T04:25:21.222Z,20.10
2022-08-17T04:27:48.768Z,20.10
2022-08-17T04:30:15.861Z,20.00
2022-08-17T04:33:00.742Z,20.00
2022-08-17T04:35:39.370Z,20.00
2022-08-17T04:38:07.730Z,20.00
2022-08-17T04:40:53.232Z,20.00
2022-08-17T04:43:23.008Z,20.00
2022-08-17T04:45:56.195Z,20.00
2022-08-17T04:48:36.096Z,20.00
2022-08-17T04:51:24.219Z,20.00
2022-08-17T04:53:55.348Z,20.00
2022-08-17T04:56:23.937Z,20.00
2022-08-17T04:58:55.001Z,20.00
2022-08-17T05:01:24.758Z,20.00
2022-08-17T05:03:58.952Z,19.90
2022-08-17T05:06:27.891Z,19.90
2022-08-17T05:08:56.048Z,19.90
2022-08-17T05:11:25.410Z,19.90
2022-08-17T05:13:53.924Z,19.90
2022-08-17T05:16:22.320Z,19.90
2022-08-17T05:18:49.920Z,20.00
2022-08-17T05:21:16.995Z,20.00
2022-08-17T05:23:44.848Z,19.90
2022-08-17T05:26:26.920Z,20.00
2022-08-17T05:28:57.310Z,20.00
2022-08-17T05:31:27.364Z,20.00
2022-08-17T05:33:54.359Z,20.00
2022-08-17T05:36:43.622Z,20.00
2022-08-17T05:39:08.099Z,20.00
2022-08-17T05:41:37.603Z,20.00
2022-08-17T05:44:05.390Z,20.10
2022-08-17T05:46:36.405Z,20.10
2022-08-17T05:49:08.055Z,20.20
2022-08-17T05:52:08.779Z,20.20
2022-08-17T05:55:10.863Z,20.30
2022-08-17T05:57:59.866Z,20.30
2022-08-17T06:00:33.199Z,20.40
2022-08-17T06:03:34.042Z,20.40
2022-08-17T06:06:17.411Z,20.40
2022-08-17T06:08:53.445Z,20.40
2022-08-17T06:11:36.825Z,20.50
2022-08-17T06:14:09.918Z,20.50
2022-08-17T06:16:44.839Z,20.50
2022-08-17T06:19:17.821Z,20.50
2022-08-17T06:21:49.352Z,20.60
2022-08-17T06:24:28.312Z,20.60
2022-08-17T06:27:01.423Z,20.60
2022-08-17T06:29:35.388Z,20.70
2022-08-17T06:32:03.910Z,20.70
2022-08-17T06:34:32.483Z,20.80
2022-08-17T06:37:10.256Z,20.90
2022-08-17T06:39:47.823Z,20.90
2022-08-17T06:43:02.817Z,21.10
2022-08-17T06:45:28.969Z,21.20
2022-08-17T06:47:59.860Z,21.30
2022-08-17T06:50:45.132Z,21.30
2022-08-17T06:53:32.896Z,21.30
2022-08-17T06:56:06.757Z,21.30
2022-08-17T06:58:35.746Z,21.30
2022-08-17T07:01:16.138Z,21.30
2022-08-17T07:03:59.191Z,21.30
2022-08-17T07:06:37.943Z,21.30
2022-08-17T07:09:28.807Z,21.40
2022-08-17T07:12:01.394Z,21.40
2022-08-17T07:14:53.145Z,21.50
2022-08-17T07:17:46.507Z,21.60
2022-08-17T07:20:15.456Z,21.60
2022-08-17T07:23:22.842Z,21.70
2022-08-17T07:25:50.288Z,21.80
2022-08-17T07:28:22.958Z,21.90
2022-08-17T07:30:54.639Z,22.00
2022-08-17T07:33:25.817Z,22.10
2022-08-17T07:35:53.883Z,22.10
2022-08-17T07:38:29.326Z,22.20
2022-08-17T07:41:02.639Z,22.20
2022-08-17T07:43:34.719Z,22.30
2022-08-17T07:46:38.843Z,22.30
2022-08-17T07:49:14.388Z,22.30
2022-08-17T07:51:44.276Z,22.30
2022-08-17T07:54:26.131Z,22.40
2022-08-17T07:56:57.319Z,22.40
2022-08-17T07:59:33.971Z,22.40
2022-08-17T08:02:06.373Z,22.50
2022-08-17T08:05:01.949Z,22.60
2022-08-17T08:07:38.371Z,22.70
2022-08-17T08:10:08.500Z,22.80
2022-08-17T08:12:37.113Z,22.90
2022-08-17T08:15:33.247Z,22.90
2022-08-17T08:18:03.345Z,23.10
2022-08-17T08:20:52.065Z,23.00
2022-08-17T08:23:45.068Z,23.10
2022-08-17T08:26:30.398Z,23.10
2022-08-17T08:29:28.352Z,23.20
2022-08-17T08:32:20.176Z,23.30
2022-08-17T08:35:07.352Z,23.30
2022-08-17T08:38:06.000Z,23.30
2022-08-17T08:40:44.784Z,23.30
2022-08-17T08:43:52.777Z,23.10
2022-08-17T08:46:57.718Z,23.10
2022-08-17T08:50:02.233Z,23.10
2022-08-17T08:52:49.980Z,23.00
2022-08-17T08:55:51.033Z,23.00
2022-08-17T08:58:32.272Z,23.10
2022-08-17T09:01:28.127Z,23.20
2022-08-17T09:04:27.488Z,23.30
2022-08-17T09:07:01.395Z,23.40
2022-08-17T09:09:42.648Z,23.40
2022-08-17T09:12:24.732Z,23.50
2022-08-17T09:14:54.822Z,23.50
2022-08-17T09:17:32.578Z,23.50
2022-08-17T09:20:38.275Z,23.40
2022-08-17T09:23:27.064Z,23.40
2022-08-17T09:26:21.982Z,23.30
2022-08-17T09:29:01.511Z,23.40
2022-08-17T09:31:58.665Z,23.50
2022-08-17T09:34:43.633Z,23.40
2022-08-17T09:37:53.185Z,23.40
2022-08-17T09:40:33.010Z,23.50
2022-08-17T09:43:06.383Z,23.70
2022-08-17T09:45:45.190Z,23.80
2022-08-17T09:48:18.406Z,24.00
2022-08-17T09:51:04.174Z,24.10
2022-08-17T09:53:33.102Z,24.10
2022-08-17T09:56:08.944Z,24.20
2022-08-17T09:59:14.454Z,24.00
2022-08-17T10:02:28.054Z,23.90
2022-08-17T10:05:14.148Z,23.80
2022-08-17T10:07:56.073Z,24.00
2022-08-17T10:10:33.634Z,24.10
2022-08-17T10:13:35.448Z,24.10
2022-08-17T10:16:19.947Z,24.20
2022-08-17T10:18:49.898Z,24.20
2022-08-17T10:21:41.714Z,24.40
2022-08-17T10:25:23.088Z,24.60
2022-08-17T10:27:42.919Z,24.80
2022-08-17T10:30:13.830Z,24.60
2022-08-17T10:32:49.990Z,24.50
2022-08-17T10:35:20.109Z,24.20
2022-08-17T10:37:59.922Z,24.30
2022-08-17T10:40:55.849Z,24.30
2022-08-17T10:44:38.354Z,24.30
2022-08-17T10:47:06.218Z,24.30
2022-08-17T10:49:37.045Z,24.40
2022-08-17T10:52:24.834Z,24.50
2022-08-17T10:54:54.872Z,24.60
2022-08-17T10:57:34.292Z,24.60
2022-08-17T11:00:15.480Z,24.60
2022-08-17T11:02:49.858Z,24.40
2022-08-17T11:05:37.969Z,24.20
2022-08-17T11:08:30.926Z,24.30
2022-08-17T11:11:19.672Z,24.40
2022-08-17T11:14:06.823Z,24.40
2022-08-17T11:16:55.055Z,24.40
2022-08-17T11:19:30.986Z,24.60
2022-08-17T11:22:16.324Z,24.50
2022-08-17T11:24:47.853Z,24.50
2022-08-17T11:27:30.904Z,24.60
2022-08-17T11:30:02.193Z,24.50
2022-08-17T11:32:32.484Z,24.30
2022-08-17T11:35:19.045Z,24.20
2022-08-17T11:38:00.828Z,24.30
2022-08-17T11:40:52.837Z,24.40
2022-08-17T11:43:21.446Z,24.60
2022-08-17T11:46:17.024Z,24.90
2022-08-17T11:49:18.336Z,24.80
2022-08-17T11:52:07.801Z,24.70
2022-08-17T11:54:47.635Z,24.90
2022-08-17T11:57:26.270Z,24.40
2022-08-17T12:00:15.306Z,24.10
2022-08-17T12:02:48.847Z,24.00
2022-08-17T12:05:22.945Z,24.20
2022-08-17T12:08:10.863Z,24.20
2022-08-17T12:10:52.296Z,24.30
2022-08-17T12:13:20.051Z,24.30
2022-08-17T12:15:50.533Z,24.20
2022-08-17T12:18:29.883Z,24.00
2022-08-17T12:21:19.915Z,24.30
2022-08-17T12:24:24.732Z,24.50
2022-08-17T12:26:55.273Z,24.40
2022-08-17T12:29:35.813Z,24.40
2022-08-17T12:32:12.999Z,24.40
2022-08-17T12:34:42.695Z,24.40
2022-08-17T12:37:20.668Z,24.40
2022-08-17T12:39:53.744Z,24.50
2022-08-17T12:42:27.479Z,24.70
2022-08-17T12:44:54.497Z,24.80
2022-08-17T12:47:22.985Z,24.90
2022-08-17T12:49:52.526Z,25.00
2022-08-17T12:52:24.931Z,25.10
2022-08-17T12:54:54.848Z,25.00
2022-08-17T12:57:35.038Z,25.10
2022-08-17T13:00:15.779Z,25.20
2022-08-17T13:02:45.263Z,25.40
2022-08-17T13:05:20.886Z,25.70
2022-08-17T13:07:47.963Z,26.00
2022-08-17T13:10:22.635Z,26.00
2022-08-17T13:12:51.026Z,26.30
2022-08-17T13:15:23.361Z,26.60
2022-08-17T13:18:17.945Z,26.80
2022-08-17T13:20:54.216Z,27.00
2022-08-17T13:23:21.325Z,26.90
2022-08-17T13:25:55.850Z,27.00
2022-08-17T13:28:32.436Z,26.90
2022-08-17T13:31:32.954Z,26.80
2022-08-17T13:34:16.919Z,26.80
2022-08-17T13:36:45.916Z,26.70
2022-08-17T13:39:21.265Z,26.50
2022-08-17T13:41:49.964Z,26.30
2022-08-17T13:44:33.763Z,26.30
2022-08-17T13:47:02.343Z,26.50
2022-08-17T13:49:48.054Z,26.40
2022-08-17T13:52:52.288Z,26.70
2022-08-17T13:55:22.397Z,27.30
2022-08-17T13:58:03.906Z,27.50
2022-08-17T14:00:36.416Z,27.60
2022-08-17T14:03:05.278Z,27.70
2022-08-17T14:05:33.767Z,27.40
2022-08-17T14:08:06.744Z,27.00
2022-08-17T14:10:36.387Z,27.20
2022-08-17T14:13:04.007Z,27.20
2022-08-17T14:15:56.091Z,27.20
2022-08-17T14:18:54.277Z,27.20
2022-08-17T14:21:08.324Z,27.50
2022-08-17T14:23:35.920Z,27.90
2022-08-17T14:26:02.871Z,28.20
2022-08-17T14:28:29.732Z,28.40
2022-08-17T14:30:56.605Z,28.50
2022-08-17T14:33:24.786Z,28.10
2022-08-17T14:35:53.527Z,27.70
2022-08-17T14:38:20.741Z,27.70
2022-08-17T14:40:48.740Z,27.60
2022-08-17T14:43:15.939Z,27.50
2022-08-17T14:45:43.459Z,27.60
2022-08-17T14:48:10.979Z,27.60
2022-08-17T14:50:41.222Z,28.00
2022-08-17T14:53:11.462Z,28.50
2022-08-17T14:55:40.613Z,28.70
2022-08-17T14:58:08.795Z,29.00
2022-08-17T15:00:35.979Z,29.20
2022-08-17T15:03:03.607Z,29.40
2022-08-17T15:05:35.137Z,29.60
2022-08-17T15:08:02.908Z,29.60
2022-08-17T15:10:30.752Z,29.80
2022-08-17T15:12:58.403Z,29.80
2022-08-17T15:15:26.003Z,29.90
2022-08-17T15:17:54.101Z,29.60
2022-08-17T15:20:27.884Z,29.50
2022-08-17T15:22:56.111Z,29.40
2022-08-17T15:25:25.975Z,29.50
2022-08-17T15:27:53.759Z,29.40
2022-08-17T15:30:21.430Z,29.40
2022-08-17T15:32:54.126Z,29.40
2022-08-17T15:35:27.975Z,29.20
2022-08-17T15:38:06.538Z,29.20
2022-08-17T15:40:40.200Z,29.10
2022-08-17T15:43:14.092Z,29.30
2022-08-17T15:45:41.336Z,29.40
2022-08-17T15:48:08.962Z,29.30
2022-08-17T15:50:36.285Z,29.40
2022-08-17T15:53:04.968Z,29.30
2022-08-17T15:55:32.580Z,29.30
2022-08-17T15:58:00.108Z,29.50
2022-08-17T16:00:29.149Z,29.90
2022-08-17T16:03:46.253Z,30.00
2022-08-17T16:05:46.674Z,29.90
2022-08-17T16:08:20.095Z,29.90
2022-08-17T16:10:48.006Z,30.20
2022-08-17T16:13:17.656Z,30.20
2022-08-17T16:15:51.119Z,30.20
2022-08-17T16:18:27.415Z,30.20
2022-08-17T16:20:55.010Z,30.10
2022-08-17T16:23:22.562Z,30.00
2022-08-17T16:25:52.992Z,29.90
2022-08-17T16:28:21.850Z,30.10
2022-08-17T16:30:48.754Z,30.30
2022-08-17T16:33:16.771Z,30.00
2022-08-17T16:35:43.955Z,29.80
2022-08-17T16:38:12.474Z,29.80
2022-08-17T16:40:40.472Z,29.90
2022-08-17T16:43:10.609Z,29.80
2022-08-17T16:45:40.526Z,30.00
2022-08-17T16:48:08.412Z,29.90
2022-08-17T16:50:36.778Z,29.90
2022-08-17T16:53:10.813Z,30.00
2022-08-17T16:55:38.418Z,30.10
2022-08-17T16:58:06.314Z,30.20
2022-08-17T17:00:33.768Z,30.10
2022-08-17T17:03:19.704Z,29.80
2022-08-17T17:06:07.261Z,29.70
2022-08-17T17:08:48.516Z,29.40
2022-08-17T17:11:41.343Z,29.00
2022-08-17T17:14:16.387Z,28.50
2022-08-17T17:17:02.613Z,28.20
2022-08-17T17:19:43.381Z,27.80
2022-08-17T17:22:16.256Z,27.70
2022-08-17T17:25:08.570Z,27.50
2022-08-17T17:27:54.016Z,27.30
2022-08-17T17:30:25.776Z,27.10
2022-08-17T17:33:14.662Z,26.60
2022-08-17T17:35:53.882Z,26.40
2022-08-17T17:38:31.341Z,26.10
2022-08-17T17:41:05.549Z,25.90
2022-08-17T17:43:39.731Z,25.80
2022-08-17T17:46:28.687Z,25.50
2022-08-17T17:49:00.194Z,25.30
2022-08-17T17:52:09.235Z,25.10
2022-08-17T17:55:01.026Z,25.00
2022-08-17T17:57:39.578Z,24.80
2022-08-17T18:00:22.150Z,24.60
2022-08-17T18:03:04.271Z,24.30
2022-08-17T18:05:37.326Z,24.20
2022-08-17T18:08:34.052Z,24.10
2022-08-17T18:11:26.300Z,24.10
2022-08-17T18:14:36.066Z,23.90
2022-08-17T18:17:03.130Z,23.80
2022-08-17T18:19:31.626Z,23.60
2022-08-17T18:22:05.102Z,23.60
2022-08-17T18:24:39.948Z,23.40
2022-08-17T18:27:24.659Z,23.40
2022-08-17T18:30:00.032Z,23.30
2022-08-17T18:32:32.338Z,23.20
2022-08-17T18:35:02.304Z,23.10
2022-08-17T18:37:45.081Z,23.00
2022-08-17T18:40:20.826Z,22.90
2022-08-17T18:43:05.345Z,22.90
2022-08-17T18:45:48.682Z,22.80
2022-08-17T18:48:49.600Z,22.70
2022-08-17T18:51:41.418Z,22.60
2022-08-17T18:54:14.803Z,22.50
2022-08-17T18:56:51.244Z,22.40
2022-08-17T18:59:29.579Z,22.40
2022-08-17T19:01:59.178Z,22.30
2022-08-17T19:04:37.165Z,22.20
2022-08-17T19:07:10.271Z,22.10
2022-08-17T19:09:43.753Z,22.10
2022-08-17T19:12:40.136Z,22.10
2022-08-17T19:15:10.603Z,22.00
2022-08-17T19:17:51.199Z,22.00
2022-08-17T19:20:21.413Z,22.00
2022-08-17T19:23:17.181Z,21.90
2022-08-17T19:26:06.383Z,21.90
2022-08-17T19:29:02.335Z,21.80
2022-08-17T19:31:30.837Z,21.80
2022-08-17T19:34:00.247Z,21.70
2022-08-17T19:36:55.496Z,21.70
2022-08-17T19:39:43.520Z,21.70
2022-08-17T19:42:13.452Z,21.60
2022-08-17T19:44:55.052Z,21.60
2022-08-17T19:47:53.658Z,21.50
2022-08-17T19:50:41.486Z,21.50
2022-08-17T19:54:04.277Z,21.60
2022-08-17T19:56:37.897Z,21.50
2022-08-17T19:59:36.080Z,21.50
2022-08-17T20:02:27.582Z,21.50
2022-08-17T20:05:00.310Z,21.50
2022-08-17T20:07:50.304Z,21.40
2022-08-17T20:10:34.409Z,21.40
2022-08-17T20:13:07.689Z,21.40
2022-08-17T20:15:39.295Z,21.40
2022-08-17T20:18:13.094Z,21.30
2022-08-17T20:20:49.149Z,21.30
2022-08-17T20:23:19.028Z,21.30
2022-08-17T20:26:10.741Z,21.20
2022-08-17T20:28:41.540Z,21.20
2022-08-17T20:31:59.159Z,21.10
2022-08-17T20:34:33.545Z,21.10
2022-08-17T20:37:14.452Z,21.10
2022-08-17T20:39:44.213Z,21.00
2022-08-17T20:42:31.014Z,21.00
2022-08-17T20:45:05.638Z,21.00
2022-08-17T20:47:50.462Z,21.00
2022-08-17T20:50:36.528Z,21.00
2022-08-17T20:53:07.228Z,21.00
2022-08-17T20:55:34.265Z,20.90
2022-08-17T20:58:24.191Z,20.80
2022-08-17T21:00:57.120Z,20.80
2022-08-17T21:03:24.150Z,20.90
2022-08-17T21:05:59.706Z,20.80
2022-08-17T21:08:58.780Z,20.80
2022-08-17T21:12:00.001Z,20.80
2022-08-17T21:14:37.357Z,20.70
2022-08-17T21:17:22.842Z,20.70
2022-08-17T21:20:27.302Z,20.60
2022-08-17T21:23:15.881Z,20.60
2022-08-17T21:26:15.656Z,20.50
2022-08-17T21:29:00.292Z,20.50
2022-08-17T21:31:36.066Z,20.50
2022-08-17T21:34:15.886Z,20.40
2022-08-17T21:36:44.555Z,20.40
2022-08-17T21:39:33.580Z,20.40
2022-08-17T21:42:01.346Z,20.30
2022-08-17T21:44:34.470Z,20.30
2022-08-17T21:47:23.651Z,20.30
2022-08-17T21:49:52.325Z,20.30
2022-08-17T21:52:22.879Z,20.30
2022-08-17T21:54:57.223Z,20.20
2022-08-17T21:57:28.815Z,20.20
2022-08-17T21:59:59.818Z,20.20
2022-08-17T22:02:36.838Z,20.20
2022-08-17T22:05:06.719Z,20.10
2022-08-17T22:07:42.144Z,20.10
2022-08-17T22:10:45.738Z,20.10
2022-08-17T22:13:23.016Z,20.00
2022-08-17T22:16:15.400Z,19.90
2022-08-17T22:18:57.980Z,19.90
2022-08-17T22:21:25.431Z,19.90
2022-08-17T22:24:15.389Z,19.80
2022-08-17T22:27:03.468Z,19.90
2022-08-17T22:29:57.277Z,19.80
2022-08-17T22:32:45.416Z,19.70
2022-08-17T22:35:33.352Z,19.70
2022-08-17T22:38:18.516Z,19.70
2022-08-17T22:40:51.386Z,19.60
2022-08-17T22:43:26.437Z,19.60
2022-08-17T22:46:00.002Z,19.60
2022-08-17T22:48:29.431Z,19.50
2022-08-17T22:51:12.612Z,19.50
2022-08-17T22:54:09.224Z,19.50
2022-08-17T22:56:55.620Z,19.40
2022-08-17T22:59:43.752Z,19.40
2022-08-17T23:02:26.654Z,19.40
2022-08-17T23:04:57.338Z,19.40
2022-08-17T23:07:24.316Z,19.30
2022-08-17T23:09:51.882Z,19.30
2022-08-17T23:12:26.272Z,19.30
2022-08-17T23:15:00.550Z,19.30
2022-08-17T23:17:37.249Z,19.30
2022-08-17T23:20:16.096Z,19.30
2022-08-17T23:22:51.522Z,19.30
2022-08-17T23:25:29.156Z,19.20
2022-08-17T23:27:58.428Z,19.30
2022-08-17T23:30:28.446Z,19.20
2022-08-17T23:32:56.571Z,19.20
2022-08-17T23:35:40.166Z,19.20
2022-08-17T23:38:12.282Z,19.20
2022-08-17T23:40:40.124Z,19.20
2022-08-17T23:43:23.798Z,19.20
2022-08-17T23:45:59.786Z,19.10
2022-08-17T23:48:36.345Z,19.10
2022-08-17T23:51:08.648Z,19.10
2022-08-17T23:53:36.755Z,19.10
2022-08-17T23:56:10.303Z,19.00
2022-08-17T23:58:43.195Z,19.00
